createdAt,value
2018-07-22T00:04:37.542Z,20.40
2018-07-22T00:07:08.624Z,20.40
2018-07-22T00:09:39.168Z,20.30
2018-07-22T00:12:08.432Z,20.30
2018-07-22T00:17:27.733Z,20.40
2018-07-22T00:20:05.249Z,20.50
2018-07-22T00:25:09.583Z,20.60
2018-07-22T00:27:39.158Z,20.80
2018-07-22T00:30:10.837Z,20.90
2018-07-22T00:32:42.541Z,21.00
2018-07-22T00:37:49.339Z,20.70
2018-07-22T00:40:23.081Z,20.50
2018-07-22T00:42:54.374Z,20.60
2018-07-22T00:45:23.738Z,20.60
2018-07-22T00:48:01.211Z,20.70
2018-07-22T00:50:32.584Z,20.70
2018-07-22T00:53:02.590Z,20.70
2018-07-22T00:55:32.189Z,20.60
2018-07-22T00:58:06.228Z,20.70
2018-07-22T01:00:36.492Z,20.50
2018-07-22T01:03:07.439Z,20.50
2018-07-22T01:05:41.163Z,20.50
2018-07-22T01:08:13.627Z,20.70
2018-07-22T01:10:47.111Z,20.60
2018-07-22T01:13:19.393Z,20.60
2018-07-22T01:15:52.442Z,20.60
2018-07-22T01:18:22.834Z,20.60
2018-07-22T01:20:52.089Z,20.50
2018-07-22T01:23:22.028Z,20.40
2018-07-22T01:25:51.963Z,20.40
2018-07-22T01:28:24.531Z,20.20
2018-07-22T01:33:28.151Z,20.40
2018-07-22T01:35:57.533Z,20.30
2018-07-22T01:38:26.998Z,20.40
2018-07-22T01:40:59.036Z,20.30
2018-07-22T01:45:57.901Z,20.30
2018-07-22T01:48:27.864Z,20.40
2018-07-22T01:50:57.089Z,20.40
2018-07-22T01:53:28.885Z,20.20
2018-07-22T01:55:58.200Z,20.20
2018-07-22T01:58:27.526Z,20.10
2018-07-22T02:00:57.617Z,20.10
2018-07-22T02:03:28.313Z,20.10
2018-07-22T02:05:59.178Z,20.10
2018-07-22T02:08:28.426Z,20.00
2018-07-22T02:10:57.727Z,20.20
2018-07-22T02:13:26.956Z,20.00
2018-07-22T02:15:57.324Z,19.90
2018-07-22T02:18:26.935Z,19.90
2018-07-22T02:20:56.395Z,19.90
2018-07-22T02:23:27.249Z,20.10
2018-07-22T02:26:01.307Z,19.90
2018-07-22T02:28:33.706Z,19.70
2018-07-22T02:31:02.980Z,19.80
2018-07-22T02:33:33.467Z,19.90
2018-07-22T02:38:32.958Z,19.90
2018-07-22T02:41:03.393Z,19.90
2018-07-22T02:43:32.660Z,19.70
2018-07-22T02:46:05.613Z,19.90
2018-07-22T02:48:34.983Z,19.90
2018-07-22T02:51:06.588Z,19.90
2018-07-22T02:56:04.736Z,19.90
2018-07-22T02:58:34.198Z,19.70
2018-07-22T03:01:04.600Z,19.70
2018-07-22T03:03:33.905Z,19.70
2018-07-22T03:06:03.518Z,19.80
2018-07-22T03:08:33.248Z,19.80
2018-07-22T03:11:02.579Z,19.70
2018-07-22T03:13:32.094Z,19.70
2018-07-22T03:16:01.385Z,19.60
2018-07-22T03:21:04.580Z,19.50
2018-07-22T03:23:36.416Z,19.50
2018-07-22T03:26:05.775Z,19.50
2018-07-22T03:28:35.398Z,19.50
2018-07-22T03:31:13.195Z,19.50
2018-07-22T03:33:42.647Z,19.70
2018-07-22T03:36:13.258Z,19.50
2018-07-22T03:38:43.631Z,19.50
2018-07-22T03:41:14.029Z,19.60
2018-07-22T03:43:44.123Z,19.70
2018-07-22T03:46:13.500Z,19.70
2018-07-22T03:51:11.907Z,19.50
2018-07-22T03:56:12.495Z,19.50
2018-07-22T03:58:41.809Z,19.50
2018-07-22T04:01:13.765Z,19.40
2018-07-22T04:03:43.042Z,19.50
2018-07-22T04:08:51.834Z,19.50
2018-07-22T04:11:21.173Z,19.40
2018-07-22T04:13:54.047Z,19.40
2018-07-22T04:16:23.372Z,19.40
2018-07-22T04:18:54.267Z,19.30
2018-07-22T04:21:24.928Z,19.60
2018-07-22T04:24:00.626Z,19.50
2018-07-22T04:26:30.424Z,19.50
2018-07-22T04:33:57.334Z,19.50
2018-07-22T04:36:26.543Z,19.40
2018-07-22T04:38:55.843Z,19.40
2018-07-22T04:41:25.143Z,19.40
2018-07-22T04:43:54.431Z,19.70
2018-07-22T04:48:53.248Z,19.50
2018-07-22T04:53:51.368Z,19.70
2018-07-22T04:56:21.016Z,19.80
2018-07-22T04:58:50.432Z,19.70
2018-07-22T05:01:20.118Z,19.60
2018-07-22T05:03:51.464Z,19.70
2018-07-22T05:06:22.209Z,19.60
2018-07-22T05:08:52.248Z,19.70
2018-07-22T05:11:22.330Z,19.90
2018-07-22T05:13:53.496Z,20.00
2018-07-22T05:16:23.084Z,20.20
2018-07-22T05:18:58.978Z,20.30
2018-07-22T05:21:29.291Z,20.40
2018-07-22T05:24:00.931Z,20.30
2018-07-22T05:26:30.188Z,20.40
2018-07-22T05:29:01.608Z,20.40
2018-07-22T05:31:30.885Z,20.10
2018-07-22T05:34:00.367Z,19.90
2018-07-22T05:36:29.605Z,19.90
2018-07-22T05:39:06.220Z,20.20
2018-07-22T05:41:38.543Z,20.10
2018-07-22T05:44:08.661Z,20.20
2018-07-22T05:49:09.955Z,20.30
2018-07-22T05:51:39.247Z,20.40
2018-07-22T05:54:08.780Z,20.60
2018-07-22T05:56:42.459Z,20.80
2018-07-22T06:01:41.416Z,20.80
2018-07-22T06:04:13.102Z,20.70
2018-07-22T06:06:42.669Z,20.60
2018-07-22T06:09:12.371Z,20.60
2018-07-22T06:11:41.826Z,20.80
2018-07-22T06:14:11.257Z,21.00
2018-07-22T06:16:41.314Z,21.10
2018-07-22T06:19:16.782Z,21.20
2018-07-22T06:21:46.112Z,21.10
2018-07-22T06:24:17.902Z,21.20
2018-07-22T06:29:21.611Z,21.50
2018-07-22T06:31:51.994Z,21.40
2018-07-22T06:34:24.879Z,21.80
2018-07-22T06:36:55.410Z,22.10
2018-07-22T06:39:25.339Z,22.20
2018-07-22T06:41:55.067Z,22.40
2018-07-22T06:44:25.993Z,22.50
2018-07-22T06:46:56.346Z,22.80
2018-07-22T06:49:26.012Z,23.00
2018-07-22T06:51:56.083Z,23.10
2018-07-22T06:54:30.613Z,23.30
2018-07-22T06:57:00.119Z,23.60
2018-07-22T06:59:31.479Z,23.60
2018-07-22T07:02:01.288Z,23.70
2018-07-22T07:04:30.606Z,23.80
2018-07-22T07:07:14.732Z,24.00
2018-07-22T07:09:45.464Z,24.30
2018-07-22T07:12:15.868Z,24.30
2018-07-22T07:14:48.140Z,24.30
2018-07-22T07:17:20.959Z,24.40
2018-07-22T07:19:50.504Z,24.30
2018-07-22T07:22:22.415Z,24.50
2018-07-22T07:24:56.650Z,24.80
2018-07-22T07:27:29.333Z,24.80
2018-07-22T07:29:58.563Z,25.10
2018-07-22T07:32:27.933Z,25.10
2018-07-22T07:34:59.016Z,25.50
2018-07-22T07:37:30.033Z,25.20
2018-07-22T07:39:59.305Z,25.30
2018-07-22T07:42:28.623Z,25.50
2018-07-22T07:44:58.256Z,25.60
2018-07-22T07:47:30.952Z,25.60
2018-07-22T07:50:04.854Z,26.00
2018-07-22T07:52:35.405Z,26.40
2018-07-22T07:55:04.754Z,26.40
2018-07-22T07:57:34.075Z,26.50
2018-07-22T08:00:04.576Z,26.60
2018-07-22T08:02:33.867Z,26.50
2018-07-22T08:07:32.009Z,26.60
2018-07-22T08:10:01.269Z,26.90
2018-07-22T08:14:59.536Z,27.40
2018-07-22T08:17:29.758Z,27.40
2018-07-22T08:19:59.738Z,27.80
2018-07-22T08:22:29.188Z,28.10
2018-07-22T08:24:58.748Z,28.40
2018-07-22T08:27:28.341Z,28.60
2018-07-22T08:32:26.625Z,29.10
2018-07-22T08:34:56.745Z,29.40
2018-07-22T08:37:26.627Z,29.60
2018-07-22T08:39:56.032Z,29.90
2018-07-22T08:42:25.560Z,30.10
2018-07-22T08:44:56.017Z,30.10
2018-07-22T08:47:26.504Z,30.10
2018-07-22T08:49:55.788Z,30.40
2018-07-22T08:52:25.041Z,30.20
2018-07-22T08:54:54.308Z,30.40
2018-07-22T08:57:24.631Z,30.60
2018-07-22T08:59:53.868Z,31.00
2018-07-22T09:02:23.184Z,30.90
2018-07-22T09:04:52.499Z,30.90
2018-07-22T09:07:21.951Z,31.00
2018-07-22T09:09:51.617Z,31.20
2018-07-22T09:14:57.002Z,31.50
2018-07-22T09:17:26.369Z,31.50
2018-07-22T09:19:55.709Z,31.80
2018-07-22T09:22:26.224Z,31.70
2018-07-22T09:24:55.654Z,31.80
2018-07-22T09:27:24.973Z,32.10
2018-07-22T09:32:23.289Z,32.20
2018-07-22T09:34:52.699Z,32.40
2018-07-22T09:37:22.015Z,32.50
2018-07-22T09:39:52.035Z,32.50
2018-07-22T09:42:21.421Z,32.80
2018-07-22T09:47:19.646Z,33.20
2018-07-22T09:49:49.122Z,33.20
2018-07-22T09:52:18.384Z,33.10
2018-07-22T09:54:47.859Z,33.20
2018-07-22T09:57:17.464Z,33.40
2018-07-22T09:59:48.367Z,33.40
2018-07-22T10:02:17.664Z,33.40
2018-07-22T10:04:47.068Z,33.70
2018-07-22T10:07:16.508Z,33.70
2018-07-22T10:09:45.749Z,33.90
2018-07-22T10:12:15.435Z,33.90
2018-07-22T10:14:45.803Z,34.00
2018-07-22T10:17:15.061Z,34.10
2018-07-22T10:22:13.324Z,34.30
2018-07-22T10:24:42.997Z,34.20
2018-07-22T10:27:12.292Z,34.40
2018-07-22T10:32:10.958Z,34.70
2018-07-22T10:34:40.233Z,34.50
2018-07-22T10:37:09.630Z,34.40
2018-07-22T10:39:39.882Z,34.30
2018-07-22T10:42:09.165Z,34.50
2018-07-22T10:44:38.539Z,34.20
2018-07-22T10:47:07.895Z,34.10
2018-07-22T10:49:37.659Z,33.90
2018-07-22T10:52:09.767Z,34.10
2018-07-22T10:54:39.214Z,34.50
2018-07-22T10:57:08.528Z,34.60
2018-07-22T10:59:37.823Z,34.90
2018-07-22T11:02:08.227Z,34.70
2018-07-22T11:04:37.479Z,34.40
2018-07-22T11:09:35.617Z,34.80
2018-07-22T11:12:04.958Z,34.70
2018-07-22T11:14:34.605Z,35.00
2018-07-22T11:17:04.884Z,34.70
2018-07-22T11:19:34.270Z,34.40
2018-07-22T11:22:03.869Z,34.10
2018-07-22T11:24:33.252Z,33.70
2018-07-22T11:27:02.782Z,33.30
2018-07-22T11:29:32.394Z,33.50
2018-07-22T11:32:01.813Z,33.90
2018-07-22T11:34:31.172Z,34.40
2018-07-22T11:37:00.833Z,34.60
2018-07-22T11:42:00.888Z,33.90
2018-07-22T11:44:30.231Z,34.20
2018-07-22T11:46:59.667Z,33.90
2018-07-22T11:49:29.245Z,33.80
2018-07-22T11:51:59.660Z,33.80
2018-07-22T11:54:29.297Z,34.00
2018-07-22T11:56:58.580Z,33.90
2018-07-22T11:59:27.851Z,34.10
2018-07-22T12:01:57.250Z,34.40
2018-07-22T12:04:26.527Z,34.60
2018-07-22T12:06:55.769Z,34.40
2018-07-22T12:09:25.070Z,34.30
2018-07-22T12:11:54.396Z,34.10
2018-07-22T12:14:24.340Z,34.10
2018-07-22T12:16:53.643Z,34.20
2018-07-22T12:19:22.972Z,34.60
2018-07-22T12:21:52.321Z,34.90
2018-07-22T12:24:21.611Z,35.10
2018-07-22T12:26:51.438Z,35.10
2018-07-22T12:29:22.019Z,35.30
2018-07-22T12:31:52.575Z,35.50
2018-07-22T12:34:21.927Z,35.30
2018-07-22T12:39:23.323Z,34.90
2018-07-22T12:41:52.604Z,35.00
2018-07-22T12:44:23.258Z,35.10
2018-07-22T12:46:52.600Z,35.00
2018-07-22T12:51:51.620Z,34.70
2018-07-22T12:54:20.868Z,34.60
2018-07-22T12:56:50.135Z,34.40
2018-07-22T12:59:19.423Z,34.40
2018-07-22T13:01:48.711Z,34.80
2018-07-22T13:04:19.595Z,34.90
2018-07-22T13:06:48.955Z,34.60
2018-07-22T13:09:19.492Z,34.50
2018-07-22T13:11:49.358Z,34.70
2018-07-22T13:14:19.001Z,34.80
2018-07-22T13:16:48.248Z,34.80
2018-07-22T13:21:46.903Z,34.70
2018-07-22T13:24:16.185Z,34.50
2018-07-22T13:26:45.458Z,34.50
2018-07-22T13:29:15.040Z,34.60
2018-07-22T13:31:44.351Z,34.70
2018-07-22T13:34:13.708Z,34.90
2018-07-22T13:36:42.918Z,34.60
2018-07-22T13:39:13.459Z,34.20
2018-07-22T13:41:42.826Z,33.60
2018-07-22T13:44:12.073Z,32.90
2018-07-22T13:46:41.768Z,32.10
2018-07-22T13:49:11.001Z,31.70
2018-07-22T13:51:40.292Z,31.40
2018-07-22T13:54:09.593Z,31.20
2018-07-22T13:56:39.247Z,30.60
2018-07-22T13:59:08.619Z,30.60
2018-07-22T14:01:38.308Z,30.40
2018-07-22T14:04:08.213Z,30.10
2018-07-22T14:06:37.520Z,30.30
2018-07-22T14:09:09.930Z,30.60
2018-07-22T14:11:39.426Z,31.20
2018-07-22T14:14:09.607Z,31.50
2018-07-22T14:16:39.581Z,31.50
2018-07-22T14:19:08.916Z,31.50
2018-07-22T14:21:38.287Z,31.40
2018-07-22T14:24:08.646Z,31.10
2018-07-22T14:26:38.064Z,31.00
2018-07-22T14:29:08.207Z,30.80
2018-07-22T14:31:37.592Z,30.50
2018-07-22T14:34:07.055Z,30.30
2018-07-22T14:36:36.520Z,30.00
2018-07-22T14:39:09.267Z,29.80
2018-07-22T14:41:39.254Z,29.80
2018-07-22T14:44:08.509Z,29.60
2018-07-22T14:46:38.043Z,29.70
2018-07-22T14:49:07.599Z,29.90
2018-07-22T14:51:37.146Z,30.20
2018-07-22T14:54:06.488Z,30.20
2018-07-22T14:56:35.747Z,30.00
2018-07-22T14:59:05.324Z,29.90
2018-07-22T15:01:34.592Z,29.80
2018-07-22T15:04:03.882Z,29.60
2018-07-22T15:06:33.159Z,29.40
2018-07-22T15:09:02.543Z,29.00
2018-07-22T15:11:31.917Z,28.80
2018-07-22T15:14:01.271Z,28.80
2018-07-22T15:21:28.699Z,28.70
2018-07-22T15:23:58.378Z,28.50
2018-07-22T15:26:28.363Z,28.40
2018-07-22T15:28:57.665Z,28.20
2018-07-22T15:31:28.836Z,28.10
2018-07-22T15:33:58.091Z,28.00
2018-07-22T15:36:27.404Z,27.90
2018-07-22T15:38:56.686Z,27.60
2018-07-22T15:41:26.397Z,27.70
2018-07-22T15:43:56.116Z,27.60
2018-07-22T15:46:26.106Z,27.50
2018-07-22T15:48:56.345Z,27.50
2018-07-22T15:51:25.607Z,27.40
2018-07-22T15:53:54.876Z,27.40
2018-07-22T15:56:24.707Z,27.40
2018-07-22T15:58:54.315Z,27.40
2018-07-22T16:01:24.272Z,27.40
2018-07-22T16:06:22.450Z,27.30
2018-07-22T16:08:52.240Z,27.30
2018-07-22T16:11:22.325Z,27.30
2018-07-22T16:13:51.855Z,27.30
2018-07-22T16:16:22.457Z,27.20
2018-07-22T16:18:51.700Z,27.30
2018-07-22T16:21:21.053Z,27.30
2018-07-22T16:28:48.892Z,27.20
2018-07-22T16:31:18.856Z,27.30
2018-07-22T16:33:49.455Z,27.30
2018-07-22T16:36:19.146Z,27.30
2018-07-22T16:41:18.943Z,27.40
2018-07-22T16:43:48.255Z,27.50
2018-07-22T16:46:19.780Z,27.50
2018-07-22T16:48:49.039Z,27.50
2018-07-22T16:53:47.823Z,27.50
2018-07-22T16:56:17.003Z,27.50
2018-07-22T16:58:46.304Z,27.60
2018-07-22T17:01:16.231Z,27.60
2018-07-22T17:03:46.542Z,27.70
2018-07-22T17:06:16.208Z,27.60
2018-07-22T17:08:45.482Z,27.60
2018-07-22T17:11:14.751Z,27.70
2018-07-22T17:13:43.986Z,27.70
2018-07-22T17:16:13.312Z,27.70
2018-07-22T17:18:42.597Z,27.60
2018-07-22T17:21:12.454Z,27.60
2018-07-22T17:23:41.709Z,27.50
2018-07-22T17:26:10.966Z,27.50
2018-07-22T17:28:40.486Z,27.40
2018-07-22T17:31:09.758Z,27.40
2018-07-22T17:33:39.310Z,27.30
2018-07-22T17:36:12.146Z,27.30
2018-07-22T17:38:41.439Z,27.20
2018-07-22T17:41:11.440Z,27.10
2018-07-22T17:43:42.000Z,27.10
2018-07-22T17:46:16.774Z,27.10
2018-07-22T17:48:46.222Z,27.00
2018-07-22T17:51:15.479Z,27.00
2018-07-22T17:53:45.042Z,26.90
2018-07-22T17:56:14.353Z,26.90
2018-07-22T17:58:44.383Z,26.90
2018-07-22T18:01:14.015Z,26.90
2018-07-22T18:03:43.409Z,26.90
2018-07-22T18:06:12.620Z,26.80
2018-07-22T18:08:41.931Z,26.80
2018-07-22T18:11:11.165Z,26.70
2018-07-22T18:13:40.453Z,26.60
2018-07-22T18:16:09.688Z,26.60
2018-07-22T18:18:38.980Z,26.50
2018-07-22T18:21:08.946Z,26.50
2018-07-22T18:23:38.665Z,26.40
2018-07-22T18:26:08.390Z,26.40
2018-07-22T18:28:37.862Z,26.40
2018-07-22T18:31:08.376Z,26.20
2018-07-22T18:33:38.180Z,26.20
2018-07-22T18:36:08.483Z,26.10
2018-07-22T18:38:37.725Z,26.00
2018-07-22T18:41:09.314Z,25.90
2018-07-22T18:43:38.885Z,25.90
2018-07-22T18:46:08.878Z,25.90
2018-07-22T18:51:09.070Z,25.70
2018-07-22T18:53:38.667Z,25.70
2018-07-22T18:56:08.330Z,25.70
2018-07-22T18:58:37.990Z,25.60
2018-07-22T19:01:07.562Z,25.60
2018-07-22T19:03:38.036Z,25.50
2018-07-22T19:06:08.402Z,25.40
2018-07-22T19:08:38.034Z,25.30
2018-07-22T19:11:07.665Z,25.30
2018-07-22T19:13:37.234Z,25.30
2018-07-22T19:16:06.936Z,25.10
2018-07-22T19:18:36.677Z,25.00
2018-07-22T19:21:06.303Z,24.90
2018-07-22T19:23:36.159Z,25.00
2018-07-22T19:26:06.437Z,25.00
2018-07-22T19:28:36.362Z,25.00
2018-07-22T19:31:07.305Z,25.10
2018-07-22T19:36:06.839Z,25.00
2018-07-22T19:38:37.205Z,24.90
2018-07-22T19:41:06.738Z,24.70
2018-07-22T19:43:36.790Z,24.70
2018-07-22T19:46:08.042Z,24.50
2018-07-22T19:48:37.688Z,24.40
2018-07-22T19:51:07.790Z,24.30
2018-07-22T19:56:07.033Z,24.10
2018-07-22T19:58:36.615Z,24.00
2018-07-22T20:01:06.290Z,24.00
2018-07-22T20:03:37.899Z,24.00
2018-07-22T20:06:07.947Z,23.80
2018-07-22T20:08:38.588Z,23.70
2018-07-22T20:11:08.149Z,23.80
2018-07-22T20:13:37.954Z,23.80
2018-07-22T20:16:07.799Z,23.80
2018-07-22T20:18:37.371Z,23.80
2018-07-22T20:21:07.182Z,23.70
2018-07-22T20:23:36.883Z,23.70
2018-07-22T20:26:06.267Z,23.70
2018-07-22T20:28:35.894Z,23.50
2018-07-22T20:31:05.473Z,23.40
2018-07-22T20:33:35.075Z,23.40
2018-07-22T20:36:04.576Z,23.40
2018-07-22T20:38:35.250Z,23.50
2018-07-22T20:41:04.843Z,23.40
2018-07-22T20:46:02.963Z,23.50
2018-07-22T20:48:32.260Z,23.50
2018-07-22T20:51:01.746Z,23.50
2018-07-22T20:53:31.061Z,23.30
2018-07-22T20:56:01.271Z,23.10
2018-07-22T20:58:30.678Z,23.20
2018-07-22T21:01:00.044Z,23.10
2018-07-22T21:03:29.326Z,23.10
2018-07-22T21:05:59.013Z,23.10
2018-07-22T21:08:29.406Z,23.10
2018-07-22T21:10:59.039Z,23.10
2018-07-22T21:13:28.528Z,23.20
2018-07-22T21:15:59.082Z,23.10
2018-07-22T21:18:32.142Z,23.10
2018-07-22T21:21:01.666Z,23.10
2018-07-22T21:23:31.224Z,23.00
2018-07-22T21:26:00.503Z,23.10
2018-07-22T21:28:29.835Z,23.00
2018-07-22T21:30:59.192Z,22.90
2018-07-22T21:33:30.690Z,23.00
2018-07-22T21:36:00.085Z,23.00
2018-07-22T21:38:29.638Z,23.10
2018-07-22T21:43:27.797Z,22.90
2018-07-22T21:45:57.108Z,22.80
2018-07-22T21:48:26.949Z,22.70
2018-07-22T21:50:56.287Z,22.60
2018-07-22T21:53:25.527Z,22.60
2018-07-22T21:55:54.836Z,22.30
2018-07-22T21:58:24.488Z,22.10
2018-07-22T22:00:54.671Z,22.20
2018-07-22T22:03:23.971Z,22.10
2018-07-22T22:05:53.345Z,21.80
2018-07-22T22:08:24.536Z,21.70
2018-07-22T22:10:53.897Z,21.80
2018-07-22T22:13:23.229Z,21.60
2018-07-22T22:15:52.854Z,21.50
2018-07-22T22:18:22.111Z,21.50
2018-07-22T22:20:51.348Z,21.40
2018-07-22T22:29:07.204Z,21.20
2018-07-22T22:34:05.936Z,21.10
2018-07-22T22:36:35.644Z,21.20
2018-07-22T22:39:07.948Z,21.10
2018-07-22T22:41:37.256Z,21.00
2018-07-22T22:44:07.795Z,21.00
2018-07-22T22:46:41.053Z,21.00
2018-07-22T22:49:11.622Z,21.00
2018-07-22T22:51:41.178Z,20.80
2018-07-22T22:56:40.295Z,20.90
2018-07-22T22:59:15.135Z,20.80
2018-07-22T23:09:53.317Z,21.00
2018-07-22T23:12:22.616Z,21.10
2018-07-22T23:14:52.027Z,21.00
2018-07-22T23:17:21.647Z,20.90
2018-07-22T23:19:50.978Z,20.70
2018-07-22T23:22:20.742Z,20.60
2018-07-22T23:24:50.016Z,20.60
2018-07-22T23:27:19.307Z,20.40
2018-07-22T23:29:48.617Z,20.50
2018-07-22T23:32:18.043Z,20.50
2018-07-22T23:34:48.294Z,20.50
2018-07-22T23:37:17.555Z,20.40
2018-07-22T23:39:46.847Z,20.20
2018-07-22T23:42:20.519Z,20.10
2018-07-22T23:44:49.827Z,20.00
2018-07-22T23:47:19.412Z,19.90
2018-07-22T23:49:48.709Z,19.90
2018-07-22T23:54:47.847Z,19.90
2018-07-22T23:57:22.517Z,19.80
2018-07-22T23:59:51.735Z,19.80
